Time;durP1;ratioP1;P1;durP2;ratioP2;P2;SDS_P1;SDS_P2;PMS_P1;PMS_P2;Temp;Humidity;BMP_temperature;BMP_pressure;BME280_temperature;BME280_humidity;BME280_pressure;Samples;Min_cycle;Max_cycle;Signal;HPM_P1;HPM_P2
2024/04/18 00:01:50;;;;;;;14.27;7.03;;;;;;;;;;5255166;26;20015;-74
2024/04/18 00:04:18;;;;;;;18.30;7.40;;;;;;;;;;5286495;26;19992;-73
2024/04/18 00:06:46;;;;;;;15.40;7.10;;;;;;;;;;5284131;26;20014;-74
2024/04/18 00:09:12;;;;;;;14.10;7.07;;;;;;;;;;5289576;26;19994;-75
2024/04/18 00:11:38;;;;;;;16.43;6.43;;;;;;;;;;5259616;26;20045;-75
2024/04/18 00:14:04;;;;;;;19.33;6.30;;;;;;;;;;5257898;26;19996;-74
2024/04/18 00:16:32;;;;;;;17.83;6.67;;;;;;;;;;5259833;26;20010;-73
2024/04/18 00:18:58;;;;;;;19.60;7.53;;;;;;;;;;5290806;26;20011;-76
2024/04/18 00:21:24;;;;;;;14.37;6.93;;;;;;;;;;5258244;26;19992;-74
2024/04/18 00:23:52;;;;;;;14.37;6.40;;;;;;;;;;5258502;26;20011;-73
2024/04/18 00:26:18;;;;;;;16.23;6.77;;;;;;;;;;5284408;26;19995;-74
2024/04/18 00:28:44;;;;;;;15.47;6.57;;;;;;;;;;5285705;26;20002;-77
2024/04/18 00:31:12;;;;;;;14.97;6.20;;;;;;;;;;5283270;26;20000;-75
2024/04/18 00:33:38;;;;;;;16.00;6.73;;;;;;;;;;5257791;26;19999;-73
2024/04/18 00:36:06;;;;;;;14.53;5.97;;;;;;;;;;5288729;26;20010;-73
2024/04/18 00:38:36;;;;;;;14.97;6.50;;;;;;;;;;5284535;26;20007;-73
2024/04/18 00:41:06;;;;;;;17.63;7.50;;;;;;;;;;5257456;26;20132;-76
2024/04/18 00:43:37;;;;;;;16.57;6.67;;;;;;;;;;5286102;26;20002;-74
2024/04/18 00:46:06;;;;;;;15.80;6.53;;;;;;;;;;5288210;26;20002;-74
2024/04/18 00:48:33;;;;;;;15.70;6.27;;;;;;;;;;5256305;26;20003;-73
2024/04/18 00:51:01;;;;;;;16.13;6.87;;;;;;;;;;5284559;26;20000;-75
2024/04/18 00:53:27;;;;;;;17.97;6.73;;;;;;;;;;5280894;26;20122;-74
2024/04/18 00:55:54;;;;;;;16.47;6.70;;;;;;;;;;5284255;26;19999;-74
2024/04/18 00:58:20;;;;;;;16.13;6.63;;;;;;;;;;5282071;26;19996;-75
2024/04/18 01:00:46;;;;;;;17.13;6.23;;;;;;;;;;5259081;26;19995;-74
2024/04/18 01:03:12;;;;;;;15.10;6.33;;;;;;;;;;5262366;26;20164;-75
2024/04/18 01:05:39;;;;;;;16.67;6.63;;;;;;;;;;5288609;26;20003;-73
2024/04/18 01:08:05;;;;;;;14.27;6.73;;;;;;;;;;5283231;26;19988;-74
2024/04/18 01:10:31;;;;;;;16.23;6.43;;;;;;;;;;5256551;26;19992;-74
2024/04/18 01:12:58;;;;;;;16.73;6.87;;;;;;;;;;5285049;26;20042;-73
2024/04/18 01:15:24;;;;;;;14.57;5.97;;;;;;;;;;5285533;26;19991;-73
2024/04/18 01:17:50;;;;;;;15.07;6.53;;;;;;;;;;5256155;26;19991;-74
2024/04/18 01:20:16;;;;;;;13.83;6.77;;;;;;;;;;5258072;26;20398;-74
2024/04/18 01:22:42;;;;;;;17.97;6.47;;;;;;;;;;5257407;26;20002;-74
2024/04/18 01:25:09;;;;;;;20.10;6.97;;;;;;;;;;5256622;26;20016;-73
2024/04/18 01:27:35;;;;;;;16.10;6.90;;;;;;;;;;5283355;26;19999;-73
2024/04/18 01:30:01;;;;;;;15.57;6.53;;;;;;;;;;5257891;26;19999;-74
2024/04/18 01:32:29;;;;;;;18.67;7.10;;;;;;;;;;5260302;26;20003;-73
2024/04/18 01:34:55;;;;;;;19.67;7.93;;;;;;;;;;5285674;26;20015;-73
2024/04/18 01:37:21;;;;;;;19.30;7.70;;;;;;;;;;5282377;26;20002;-73
2024/04/18 01:39:49;;;;;;;19.13;8.20;;;;;;;;;;5257789;26;20006;-75
2024/04/18 01:42:15;;;;;;;24.00;7.43;;;;;;;;;;5281839;26;20003;-74
2024/04/18 01:44:41;;;;;;;20.40;7.80;;;;;;;;;;5287575;26;20015;-74
2024/04/18 01:47:07;;;;;;;24.10;8.83;;;;;;;;;;5286918;26;20003;-74
2024/04/18 01:49:35;;;;;;;20.97;8.30;;;;;;;;;;5285568;26;20018;-73
2024/04/18 01:52:04;;;;;;;23.43;7.60;;;;;;;;;;5285314;26;19991;-74
2024/04/18 01:54:30;;;;;;;22.80;8.53;;;;;;;;;;5257264;26;19999;-75
2024/04/18 01:56:56;;;;;;;24.07;9.27;;;;;;;;;;5285841;26;20006;-74
2024/04/18 01:59:24;;;;;;;27.60;9.23;;;;;;;;;;5282643;26;20113;-75
2024/04/18 02:01:50;;;;;;;26.20;9.43;;;;;;;;;;5282199;26;20032;-75
2024/04/18 02:04:17;;;;;;;24.60;9.57;;;;;;;;;;5257364;26;19999;-74
2024/04/18 02:06:44;;;;;;;26.33;9.37;;;;;;;;;;5281778;26;20019;-74
2024/04/18 02:09:10;;;;;;;26.40;10.10;;;;;;;;;;5283847;26;19995;-73
2024/04/18 02:11:36;;;;;;;26.63;10.60;;;;;;;;;;5286477;26;20039;-73
2024/04/18 02:14:02;;;;;;;21.33;8.70;;;;;;;;;;5258058;26;20006;-74
2024/04/18 02:16:28;;;;;;;26.50;8.50;;;;;;;;;;5258692;26;19995;-75
2024/04/18 02:18:57;;;;;;;21.80;8.43;;;;;;;;;;5283490;26;20015;-73
2024/04/18 02:21:23;;;;;;;24.90;9.80;;;;;;;;;;5259363;26;20006;-73
2024/04/18 02:23:48;;;;;;;28.63;9.43;;;;;;;;;;5251833;26;20003;-74
2024/04/18 02:26:14;;;;;;;25.83;9.40;;;;;;;;;;5255049;26;19998;-73
2024/04/18 02:28:41;;;;;;;24.30;10.57;;;;;;;;;;5284940;26;20013;-72
2024/04/18 02:31:09;;;;;;;28.60;11.03;;;;;;;;;;5285555;26;20007;-73
2024/04/18 02:33:37;;;;;;;25.20;10.57;;;;;;;;;;5281336;26;19987;-73
2024/04/18 02:36:03;;;;;;;28.57;10.57;;;;;;;;;;5259486;26;19999;-73
2024/04/18 02:38:29;;;;;;;32.07;9.97;;;;;;;;;;5283663;26;20033;-74
2024/04/18 02:41:04;;;;;;;26.47;10.97;;;;;;;;;;5259034;26;19991;-74
2024/04/18 02:43:30;;;;;;;31.37;10.43;;;;;;;;;;5257745;26;20010;-74
2024/04/18 02:45:59;;;;;;;31.10;11.27;;;;;;;;;;5284913;26;20014;-74
2024/04/18 02:48:25;;;;;;;36.77;11.83;;;;;;;;;;5258293;26;20001;-73
2024/04/18 02:50:51;;;;;;;29.27;11.20;;;;;;;;;;5278436;26;19996;-73
2024/04/18 02:53:19;;;;;;;30.23;11.60;;;;;;;;;;5281246;26;20062;-72
2024/04/18 02:55:45;;;;;;;30.37;11.87;;;;;;;;;;5252569;26;20000;-75
2024/04/18 02:58:11;;;;;;;32.27;11.47;;;;;;;;;;5258330;26;20018;-75
2024/04/18 03:00:40;;;;;;;30.03;10.97;;;;;;;;;;5255238;26;19987;-73
2024/04/18 03:03:06;;;;;;;42.50;12.53;;;;;;;;;;5255353;26;20003;-73
2024/04/18 03:05:32;;;;;;;29.70;11.30;;;;;;;;;;5279816;26;20056;-74
2024/04/18 03:07:58;;;;;;;34.87;11.73;;;;;;;;;;5281824;26;20039;-74
2024/04/18 03:10:26;;;;;;;32.73;13.27;;;;;;;;;;5253594;26;20017;-74
2024/04/18 03:12:55;;;;;;;34.40;11.33;;;;;;;;;;5254415;26;20043;-73
2024/04/18 03:15:21;;;;;;;33.10;12.43;;;;;;;;;;5251345;26;20007;-73
2024/04/18 03:17:51;;;;;;;33.87;11.97;;;;;;;;;;5256684;26;20043;-74
2024/04/18 03:20:19;;;;;;;35.80;12.17;;;;;;;;;;5286007;26;19995;-73
2024/04/18 03:22:45;;;;;;;32.33;10.53;;;;;;;;;;5253162;26;20453;-74
2024/04/18 03:25:11;;;;;;;34.13;11.60;;;;;;;;;;5256120;26;19999;-73
2024/04/18 03:27:37;;;;;;;35.97;10.83;;;;;;;;;;5282374;26;19999;-76
2024/04/18 03:30:03;;;;;;;39.87;10.77;;;;;;;;;;5280672;26;20083;-74
2024/04/18 03:32:29;;;;;;;33.47;12.03;;;;;;;;;;5249590;26;19991;-73
2024/04/18 03:34:55;;;;;;;34.27;11.93;;;;;;;;;;5281048;26;19991;-73
2024/04/18 03:37:21;;;;;;;31.47;12.33;;;;;;;;;;5286619;26;19995;-73
2024/04/18 03:39:47;;;;;;;36.67;11.77;;;;;;;;;;5257620;26;19991;-74
2024/04/18 03:42:13;;;;;;;28.03;10.60;;;;;;;;;;5279215;26;20007;-74
2024/04/18 03:44:41;;;;;;;31.73;10.93;;;;;;;;;;5261955;26;20007;-73
2024/04/18 03:47:07;;;;;;;35.93;12.23;;;;;;;;;;5286238;26;20000;-74
2024/04/18 03:49:33;;;;;;;33.37;10.83;;;;;;;;;;5282208;26;19995;-74
2024/04/18 03:52:01;;;;;;;32.10;12.07;;;;;;;;;;5258222;26;20010;-74
2024/04/18 03:54:27;;;;;;;27.43;11.03;;;;;;;;;;5287727;26;20002;-74
2024/04/18 03:56:53;;;;;;;30.87;9.83;;;;;;;;;;5287251;26;20053;-75
2024/04/18 03:59:19;;;;;;;31.37;9.87;;;;;;;;;;5255473;26;19998;-77
2024/04/18 04:01:45;;;;;;;30.20;11.40;;;;;;;;;;5285997;26;20003;-73
2024/04/18 04:04:11;;;;;;;29.47;9.73;;;;;;;;;;5288739;26;19992;-75
2024/04/18 04:06:37;;;;;;;31.53;10.93;;;;;;;;;;5258214;26;20067;-74
2024/04/18 04:09:03;;;;;;;30.13;11.53;;;;;;;;;;5259118;26;20030;-73
2024/04/18 04:11:29;;;;;;;29.77;11.07;;;;;;;;;;5259618;26;20002;-74
2024/04/18 04:13:55;;;;;;;29.63;10.57;;;;;;;;;;5257172;26;20006;-74
2024/04/18 04:16:21;;;;;;;33.80;10.73;;;;;;;;;;5287339;26;19995;-75
2024/04/18 04:18:55;;;;;;;29.57;11.17;;;;;;;;;;5284420;26;20054;-74
2024/04/18 04:21:22;;;;;;;31.67;10.53;;;;;;;;;;5285293;26;19997;-74
2024/04/18 04:23:48;;;;;;;23.27;9.97;;;;;;;;;;5256120;26;20171;-75
2024/04/18 04:26:14;;;;;;;29.40;10.27;;;;;;;;;;5286800;26;19991;-74
2024/04/18 04:28:40;;;;;;;34.30;11.53;;;;;;;;;;5257049;26;20040;-74
2024/04/18 04:31:06;;;;;;;24.00;10.63;;;;;;;;;;5285263;26;20003;-73
2024/04/18 04:33:33;;;;;;;26.60;10.07;;;;;;;;;;5280808;26;20012;-74
2024/04/18 04:36:02;;;;;;;28.40;10.47;;;;;;;;;;5259111;26;20010;-74
2024/04/18 04:38:31;;;;;;;31.00;11.50;;;;;;;;;;5283578;26;19998;-73
2024/04/18 04:40:59;;;;;;;28.03;10.47;;;;;;;;;;5254252;26;20019;-75
2024/04/18 04:43:25;;;;;;;30.97;11.10;;;;;;;;;;5284032;26;19995;-74
2024/04/18 04:45:57;;;;;;;24.03;10.20;;;;;;;;;;5286034;26;20043;-74
2024/04/18 04:48:23;;;;;;;25.52;10.07;;;;;;;;;;5309308;26;19991;-74
2024/04/18 04:50:59;;;;;;;25.40;9.60;;;;;;;;;;5259025;26;19995;-74
2024/04/18 04:53:26;;;;;;;27.13;11.07;;;;;;;;;;5281077;26;20016;-74
2024/04/18 04:55:52;;;;;;;26.70;9.47;;;;;;;;;;5263329;26;20015;-73
2024/04/18 04:58:18;;;;;;;27.30;10.53;;;;;;;;;;5289881;26;20019;-74
2024/04/18 05:00:44;;;;;;;25.30;9.77;;;;;;;;;;5280958;26;19995;-74
2024/04/18 05:03:10;;;;;;;23.90;9.23;;;;;;;;;;5282172;26;19996;-74
2024/04/18 05:05:36;;;;;;;20.13;9.23;;;;;;;;;;5285246;26;19994;-76
2024/04/18 05:08:02;;;;;;;22.33;8.77;;;;;;;;;;5285486;26;20638;-75
2024/04/18 05:10:30;;;;;;;22.73;9.10;;;;;;;;;;5267739;26;19995;-74
2024/04/18 05:13:00;;;;;;;22.27;9.20;;;;;;;;;;5322393;26;19995;-74
2024/04/18 05:15:26;;;;;;;20.63;8.30;;;;;;;;;;5298720;26;20014;-74
2024/04/18 05:17:52;;;;;;;23.17;9.33;;;;;;;;;;5296304;26;20231;-74
2024/04/18 05:20:18;;;;;;;20.43;8.37;;;;;;;;;;5262621;26;20006;-75
2024/04/18 05:22:44;;;;;;;24.67;9.60;;;;;;;;;;5298906;26;20042;-75
2024/04/18 05:25:10;;;;;;;18.47;7.43;;;;;;;;;;5287423;26;20043;-74
2024/04/18 05:27:43;;;;;;;25.43;9.33;;;;;;;;;;5300035;26;20015;-73
2024/04/18 05:32:54;;;;;;;23.83;8.33;;;;;;;;;;5262484;26;20021;-74
2024/04/18 05:35:20;;;;;;;18.70;8.80;;;;;;;;;;5293026;26;19999;-75
2024/04/18 05:37:46;;;;;;;19.47;8.40;;;;;;;;;;5264373;26;20011;-74
2024/04/18 05:40:12;;;;;;;21.93;8.73;;;;;;;;;;5255689;26;20002;-74
2024/04/18 05:42:40;;;;;;;23.13;8.33;;;;;;;;;;5254486;26;20041;-75
2024/04/18 05:45:06;;;;;;;17.70;8.50;;;;;;;;;;5284809;26;20040;-76
2024/04/18 05:47:35;;;;;;;20.67;8.50;;;;;;;;;;5283372;26;20009;-74
2024/04/18 05:50:01;;;;;;;23.63;8.07;;;;;;;;;;5283302;26;19995;-74
2024/04/18 05:52:29;;;;;;;23.90;8.77;;;;;;;;;;5257059;26;19991;-74
2024/04/18 05:54:58;;;;;;;19.47;8.67;;;;;;;;;;5255889;26;19991;-74
2024/04/18 05:57:24;;;;;;;19.40;8.37;;;;;;;;;;5285625;26;20003;-74
2024/04/18 05:59:51;;;;;;;20.80;8.27;;;;;;;;;;5282615;26;20027;-75
2024/04/18 06:02:17;;;;;;;26.43;9.20;;;;;;;;;;5281845;26;19996;-75
2024/04/18 06:04:43;;;;;;;24.23;9.47;;;;;;;;;;5258242;26;20003;-74
2024/04/18 06:07:09;;;;;;;19.43;8.07;;;;;;;;;;5258773;26;19995;-74
2024/04/18 06:09:38;;;;;;;23.40;8.70;;;;;;;;;;5282518;26;20015;-75
2024/04/18 06:12:07;;;;;;;17.67;7.70;;;;;;;;;;5287421;26;20002;-75
2024/04/18 06:14:33;;;;;;;17.17;7.33;;;;;;;;;;5256424;26;20042;-75
2024/04/18 06:16:59;;;;;;;20.17;7.57;;;;;;;;;;5249787;27;19995;-76
2024/04/18 06:19:27;;;;;;;17.90;8.07;;;;;;;;;;5278875;26;20047;-75
2024/04/18 06:22:03;;;;;;;15.80;6.60;;;;;;;;;;5257042;26;20036;-75
2024/04/18 06:24:29;;;;;;;19.20;7.73;;;;;;;;;;5256157;26;19991;-75
2024/04/18 06:27:01;;;;;;;22.67;7.77;;;;;;;;;;5287761;26;20003;-75
2024/04/18 06:29:28;;;;;;;19.37;8.43;;;;;;;;;;5282446;26;19999;-74
2024/04/18 06:31:54;;;;;;;17.47;8.63;;;;;;;;;;5283201;26;19999;-77
2024/04/18 06:34:23;;;;;;;15.70;7.97;;;;;;;;;;5277508;26;19993;-79
2024/04/18 06:36:49;;;;;;;20.13;7.23;;;;;;;;;;5252542;27;20005;-75
2024/04/18 06:39:17;;;;;;;17.83;8.90;;;;;;;;;;5254250;26;20012;-75
2024/04/18 06:41:43;;;;;;;16.47;8.43;;;;;;;;;;5252990;26;20006;-77
2024/04/18 06:44:09;;;;;;;15.27;7.50;;;;;;;;;;5255324;26;20011;-74
2024/04/18 06:46:38;;;;;;;18.67;8.10;;;;;;;;;;5278278;26;20014;-73
2024/04/18 06:49:04;;;;;;;16.00;8.13;;;;;;;;;;5275794;26;19999;-74
2024/04/18 06:51:30;;;;;;;21.07;8.37;;;;;;;;;;5281241;26;19995;-74
2024/04/18 06:53:56;;;;;;;16.77;8.10;;;;;;;;;;5282794;26;20018;-73
2024/04/18 06:56:25;;;;;;;18.03;7.93;;;;;;;;;;5253973;26;20006;-73
2024/04/18 06:58:51;;;;;;;12.93;7.30;;;;;;;;;;5281988;26;20015;-75
2024/04/18 07:01:17;;;;;;;15.63;6.90;;;;;;;;;;5279833;26;20054;-75
2024/04/18 07:03:42;;;;;;;16.37;7.20;;;;;;;;;;5257157;26;19991;-73
2024/04/18 07:06:08;;;;;;;15.20;6.87;;;;;;;;;;5282172;26;20262;-74
2024/04/18 07:08:35;;;;;;;14.47;6.63;;;;;;;;;;5283296;26;20021;-74
2024/04/18 07:11:03;;;;;;;13.23;6.97;;;;;;;;;;5280343;26;20002;-73
2024/04/18 07:13:30;;;;;;;13.20;7.33;;;;;;;;;;5256435;26;20002;-73
2024/04/18 07:15:56;;;;;;;10.03;5.63;;;;;;;;;;5287185;26;20011;-73
2024/04/18 07:18:22;;;;;;;11.67;6.37;;;;;;;;;;5284464;26;19991;-73
2024/04/18 07:20:48;;;;;;;17.33;5.40;;;;;;;;;;5260662;26;20007;-74
2024/04/18 07:23:14;;;;;;;12.73;5.63;;;;;;;;;;5287800;26;19995;-73
2024/04/18 07:25:41;;;;;;;12.67;5.57;;;;;;;;;;5285798;26;20007;-74
2024/04/18 07:28:07;;;;;;;15.43;5.80;;;;;;;;;;5259878;26;20075;-74
2024/04/18 07:30:33;;;;;;;14.27;5.87;;;;;;;;;;5283644;26;20006;-73
2024/04/18 07:33:02;;;;;;;18.93;6.67;;;;;;;;;;5259369;26;20003;-73
2024/04/18 07:35:28;;;;;;;10.27;5.03;;;;;;;;;;5258349;26;20010;-73
2024/04/18 07:37:55;;;;;;;10.30;4.80;;;;;;;;;;5285876;26;20011;-74
2024/04/18 07:40:23;;;;;;;8.97;4.40;;;;;;;;;;5256329;26;19999;-74
2024/04/18 07:42:49;;;;;;;10.43;3.50;;;;;;;;;;5286057;26;20031;-73
2024/04/18 07:45:18;;;;;;;13.00;4.30;;;;;;;;;;5284920;26;19999;-74
2024/04/18 07:47:45;;;;;;;11.20;4.80;;;;;;;;;;5284895;26;19995;-75
2024/04/18 07:50:11;;;;;;;7.90;3.47;;;;;;;;;;5282678;26;19987;-73
2024/04/18 07:52:39;;;;;;;8.20;3.17;;;;;;;;;;5285857;26;19995;-74
2024/04/18 07:55:06;;;;;;;6.47;3.73;;;;;;;;;;5283631;26;20011;-73
2024/04/18 07:57:34;;;;;;;8.93;3.47;;;;;;;;;;5284331;26;20014;-74
2024/04/18 08:00:00;;;;;;;9.17;3.10;;;;;;;;;;5256050;26;19991;-73
2024/04/18 08:02:26;;;;;;;6.87;3.10;;;;;;;;;;5257639;26;20004;-74
2024/04/18 08:04:54;;;;;;;7.33;3.47;;;;;;;;;;5286090;26;20006;-73
2024/04/18 08:07:20;;;;;;;18.30;4.17;;;;;;;;;;5283429;26;20011;-72
2024/04/18 08:09:46;;;;;;;7.33;2.77;;;;;;;;;;5253710;26;19995;-73
2024/04/18 08:12:14;;;;;;;4.73;3.10;;;;;;;;;;5255235;26;19996;-72
2024/04/18 08:14:40;;;;;;;7.00;3.17;;;;;;;;;;5254031;26;19995;-74
2024/04/18 08:17:06;;;;;;;9.87;3.83;;;;;;;;;;5256833;26;20010;-73
2024/04/18 08:19:35;;;;;;;5.10;2.90;;;;;;;;;;5286497;26;19988;-73
2024/04/18 08:22:01;;;;;;;6.40;3.30;;;;;;;;;;5281354;26;19999;-73
2024/04/18 08:24:27;;;;;;;6.53;2.70;;;;;;;;;;5257750;26;19999;-72
2024/04/18 08:26:59;;;;;;;3.47;3.17;;;;;;;;;;5256358;26;20012;-73
2024/04/18 08:29:27;;;;;;;5.90;2.50;;;;;;;;;;5284983;26;20007;-72
2024/04/18 08:31:54;;;;;;;5.20;2.27;;;;;;;;;;5287148;26;19991;-72
2024/04/18 08:34:20;;;;;;;4.57;2.43;;;;;;;;;;5283141;26;19995;-73
2024/04/18 08:36:46;;;;;;;3.67;2.27;;;;;;;;;;5255775;26;19991;-72
2024/04/18 08:39:14;;;;;;;7.30;2.30;;;;;;;;;;5284377;26;20007;-74
2024/04/18 08:41:48;;;;;;;7.27;2.73;;;;;;;;;;5282571;26;20019;-73
2024/04/18 08:44:16;;;;;;;5.30;2.10;;;;;;;;;;5286213;26;20003;-72
2024/04/18 08:46:44;;;;;;;4.77;2.60;;;;;;;;;;5283870;26;19991;-72
2024/04/18 08:49:11;;;;;;;5.87;2.37;;;;;;;;;;5285342;26;20028;-72
2024/04/18 08:51:40;;;;;;;5.97;2.00;;;;;;;;;;5254950;26;19995;-73
2024/04/18 08:54:06;;;;;;;7.23;2.00;;;;;;;;;;5282168;26;19991;-73
2024/04/18 08:56:32;;;;;;;6.30;2.30;;;;;;;;;;5256422;26;19995;-72
2024/04/18 08:58:59;;;;;;;7.53;1.93;;;;;;;;;;5253376;26;20050;-74
2024/04/18 09:01:27;;;;;;;3.37;2.33;;;;;;;;;;5254463;26;20001;-73
2024/04/18 09:03:55;;;;;;;6.20;2.17;;;;;;;;;;5254544;26;19991;-72
2024/04/18 09:06:21;;;;;;;2.93;1.87;;;;;;;;;;5279933;26;20006;-72
2024/04/18 09:08:51;;;;;;;3.73;2.00;;;;;;;;;;5251773;26;20011;-72
2024/04/18 09:11:18;;;;;;;3.53;1.50;;;;;;;;;;5281297;26;20006;-72
2024/04/18 09:13:52;;;;;;;4.23;1.17;;;;;;;;;;5280276;26;20015;-72
2024/04/18 09:16:18;;;;;;;3.27;1.43;;;;;;;;;;5253608;26;20055;-72
2024/04/18 09:18:50;;;;;;;2.07;1.23;;;;;;;;;;5256394;26;20010;-72
2024/04/18 09:21:19;;;;;;;4.53;1.73;;;;;;;;;;5254846;26;19991;-72
2024/04/18 09:23:45;;;;;;;3.83;1.50;;;;;;;;;;5281740;26;19998;-72
2024/04/18 09:26:11;;;;;;;4.30;1.57;;;;;;;;;;5256296;26;19999;-72
2024/04/18 09:28:40;;;;;;;5.37;1.60;;;;;;;;;;5282822;26;19999;-72
2024/04/18 09:31:07;;;;;;;5.23;1.13;;;;;;;;;;5283570;26;19999;-72
2024/04/18 09:33:35;;;;;;;5.63;1.30;;;;;;;;;;5280259;26;20014;-71
2024/04/18 09:36:01;;;;;;;2.00;1.00;;;;;;;;;;5252112;26;19995;-72
2024/04/18 09:38:32;;;;;;;2.00;1.40;;;;;;;;;;5253441;26;20066;-72
2024/04/18 09:41:01;;;;;;;0.87;0.60;;;;;;;;;;5253167;26;19998;-72
2024/04/18 09:43:31;;;;;;;3.70;0.90;;;;;;;;;;5256050;26;20042;-71
2024/04/18 09:46:03;;;;;;;2.43;1.20;;;;;;;;;;5284649;26;19987;-72
2024/04/18 09:48:29;;;;;;;3.17;1.13;;;;;;;;;;5283083;26;20006;-72
2024/04/18 09:50:55;;;;;;;4.97;1.40;;;;;;;;;;5251355;26;19990;-71
2024/04/18 09:53:27;;;;;;;2.97;1.23;;;;;;;;;;5283925;26;20043;-71
2024/04/18 09:55:54;;;;;;;2.28;0.88;;;;;;;;;;5282580;26;19987;-72
2024/04/18 09:58:20;;;;;;;3.93;1.20;;;;;;;;;;5282105;26;20042;-71
2024/04/18 10:00:46;;;;;;;2.20;1.17;;;;;;;;;;5256417;26;20014;-72
2024/04/18 10:03:15;;;;;;;3.50;0.90;;;;;;;;;;5257968;26;20022;-71
2024/04/18 10:05:44;;;;;;;3.90;1.33;;;;;;;;;;5281011;26;20004;-72
2024/04/18 10:08:10;;;;;;;2.93;1.03;;;;;;;;;;5252682;26;20010;-76
2024/04/18 10:10:39;;;;;;;3.33;1.00;;;;;;;;;;5280019;26;20016;-73
2024/04/18 10:13:05;;;;;;;1.80;0.57;;;;;;;;;;5252569;26;19995;-73
2024/04/18 10:15:31;;;;;;;1.40;0.80;;;;;;;;;;5255246;26;20007;-73
2024/04/18 10:17:57;;;;;;;4.67;2.40;;;;;;;;;;5257893;26;20015;-72
2024/04/18 10:20:30;;;;;;;2.60;2.07;;;;;;;;;;5250775;26;20003;-73
2024/04/18 10:22:56;;;;;;;;;;;;;;;;;;5284223;26;21534;-74
2024/04/18 10:25:23;;;;;;;6.40;2.27;;;;;;;;;;5256018;26;19968;-76
2024/04/18 10:27:49;;;;;;;2.60;2.17;;;;;;;;;;5255424;26;20022;-75
2024/04/18 10:30:16;;;;;;;6.13;2.47;;;;;;;;;;5283650;26;19995;-75
2024/04/18 10:32:43;;;;;;;3.37;1.87;;;;;;;;;;5253959;26;20016;-76
2024/04/18 10:35:10;;;;;;;5.20;2.20;;;;;;;;;;5282547;26;20003;-77
2024/04/18 10:37:36;;;;;;;3.23;1.40;;;;;;;;;;5280230;26;20010;-76
2024/04/18 10:40:05;;;;;;;3.43;1.30;;;;;;;;;;5276969;26;20007;-75
2024/04/18 10:42:35;;;;;;;3.73;1.40;;;;;;;;;;5281662;26;19991;-76
2024/04/18 10:45:02;;;;;;;4.60;1.57;;;;;;;;;;5281799;26;20003;-76
2024/04/18 10:47:28;;;;;;;4.63;2.10;;;;;;;;;;5280287;26;19998;-74
2024/04/18 10:49:54;;;;;;;4.27;1.23;;;;;;;;;;5280560;26;20054;-77
2024/04/18 10:52:20;;;;;;;1.33;1.07;;;;;;;;;;5282799;26;20004;-78
2024/04/18 10:54:46;;;;;;;2.67;1.80;;;;;;;;;;5281432;26;20007;-77
2024/04/18 10:57:12;;;;;;;2.97;1.07;;;;;;;;;;5279112;26;20072;-78
2024/04/18 10:59:43;;;;;;;2.87;1.40;;;;;;;;;;5256720;26;20015;-77
2024/04/18 11:02:10;;;;;;;3.53;1.47;;;;;;;;;;5254424;26;19999;-77
2024/04/18 11:04:36;;;;;;;2.80;1.27;;;;;;;;;;5256011;26;20002;-78
2024/04/18 11:07:05;;;;;;;9.47;1.60;;;;;;;;;;5256497;26;19999;-78
2024/04/18 11:09:33;;;;;;;6.43;1.60;;;;;;;;;;5297478;26;20011;-77
2024/04/18 11:12:00;;;;;;;3.53;1.07;;;;;;;;;;5283189;26;19999;-77
2024/04/18 11:14:26;;;;;;;4.93;1.17;;;;;;;;;;5291535;26;20001;-78
2024/04/18 11:16:56;;;;;;;3.53;0.97;;;;;;;;;;5282512;26;19999;-78
2024/04/18 11:19:22;;;;;;;2.43;1.47;;;;;;;;;;5262657;26;20006;-79
2024/04/18 11:21:48;;;;;;;1.57;0.97;;;;;;;;;;5263086;26;20002;-78
2024/04/18 11:24:14;;;;;;;2.27;1.07;;;;;;;;;;5291519;26;20011;-78
2024/04/18 11:26:40;;;;;;;1.17;0.60;;;;;;;;;;5321789;26;20021;-77
2024/04/18 11:29:07;;;;;;;1.80;0.80;;;;;;;;;;5265128;26;20021;-77
2024/04/18 11:31:33;;;;;;;2.07;0.70;;;;;;;;;;5261339;26;20003;-78
2024/04/18 11:33:59;;;;;;;1.63;0.50;;;;;;;;;;5289341;26;20006;-78
2024/04/18 11:36:28;;;;;;;0.73;0.50;;;;;;;;;;5263114;26;20007;-78
2024/04/18 11:38:59;;;;;;;1.63;1.17;;;;;;;;;;5289170;26;19997;-78
2024/04/18 11:41:30;;;;;;;2.50;0.50;;;;;;;;;;5291786;26;20001;-78
2024/04/18 11:43:59;;;;;;;1.67;0.50;;;;;;;;;;5292489;26;20014;-77
2024/04/18 11:46:26;;;;;;;2.80;0.70;;;;;;;;;;5252107;26;20007;-77
2024/04/18 11:48:52;;;;;;;0.50;0.30;;;;;;;;;;5280357;26;20002;-78
2024/04/18 11:51:18;;;;;;;1.43;0.43;;;;;;;;;;5281574;26;20011;-77
2024/04/18 11:53:44;;;;;;;2.10;0.40;;;;;;;;;;5283679;26;19988;-77
2024/04/18 11:56:13;;;;;;;1.30;0.40;;;;;;;;;;5281228;26;20051;-77
2024/04/18 11:58:39;;;;;;;1.73;0.50;;;;;;;;;;5284857;26;20050;-77
2024/04/18 12:01:06;;;;;;;0.50;0.37;;;;;;;;;;5258484;26;20030;-77
2024/04/18 12:03:33;;;;;;;0.87;0.20;;;;;;;;;;5286273;26;20002;-78
2024/04/18 12:05:59;;;;;;;2.20;0.40;;;;;;;;;;5258937;26;20010;-77
2024/04/18 12:08:25;;;;;;;1.37;0.30;;;;;;;;;;5257570;26;20002;-76
2024/04/18 12:10:51;;;;;;;5.90;0.30;;;;;;;;;;5283842;26;20236;-76
2024/04/18 12:13:17;;;;;;;0.20;0.20;;;;;;;;;;5285220;26;19995;-77
2024/04/18 12:15:43;;;;;;;0.57;0.20;;;;;;;;;;5280938;26;20002;-76
2024/04/18 12:18:09;;;;;;;0.93;0.30;;;;;;;;;;5283526;26;21735;-76
2024/04/18 12:20:35;;;;;;;5.93;1.17;;;;;;;;;;5256305;26;20036;-76
2024/04/18 12:23:03;;;;;;;0.67;0.30;;;;;;;;;;5256219;26;20002;-77
2024/04/18 12:25:29;;;;;;;1.20;0.40;;;;;;;;;;5287162;26;20001;-77
2024/04/18 12:27:55;;;;;;;1.10;0.40;;;;;;;;;;5284421;26;20007;-76
2024/04/18 12:30:21;;;;;;;3.77;0.20;;;;;;;;;;5255904;26;20007;-77
2024/04/18 12:32:50;;;;;;;1.10;0.20;;;;;;;;;;5286347;26;20002;-76
2024/04/18 12:35:16;;;;;;;1.60;0.53;;;;;;;;;;5284252;26;19992;-77
2024/04/18 12:37:42;;;;;;;0.23;0.20;;;;;;;;;;5283839;26;20008;-77
2024/04/18 12:40:08;;;;;;;0.70;0.20;;;;;;;;;;5283819;26;20000;-79
2024/04/18 12:42:35;;;;;;;1.90;0.40;;;;;;;;;;5286308;26;20010;-76
2024/04/18 12:45:03;;;;;;;0.30;0.17;;;;;;;;;;5253656;26;19995;-77
2024/04/18 12:47:29;;;;;;;0.90;0.37;;;;;;;;;;5284598;26;20311;-76
2024/04/18 12:49:55;;;;;;;0.67;0.20;;;;;;;;;;5257060;26;20019;-76
2024/04/18 12:52:21;;;;;;;0.53;0.20;;;;;;;;;;5283400;26;19995;-76
2024/04/18 12:54:47;;;;;;;2.50;0.30;;;;;;;;;;5258042;26;20027;-76
2024/04/18 12:57:13;;;;;;;0.73;0.33;;;;;;;;;;5256763;26;19987;-77
2024/04/18 12:59:41;;;;;;;0.87;0.17;;;;;;;;;;5283653;26;20015;-77
2024/04/18 13:02:08;;;;;;;1.60;0.40;;;;;;;;;;5283253;26;20067;-76
2024/04/18 13:04:38;;;;;;;2.00;0.20;;;;;;;;;;5287889;26;20005;-77
2024/04/18 13:07:05;;;;;;;1.30;0.20;;;;;;;;;;5281959;26;20019;-76
2024/04/18 13:09:31;;;;;;;1.00;0.50;;;;;;;;;;5280012;26;20000;-76
2024/04/18 13:11:57;;;;;;;1.33;0.30;;;;;;;;;;5282374;26;20006;-76
2024/04/18 13:14:23;;;;;;;0.38;0.20;;;;;;;;;;5282186;26;19991;-77
2024/04/18 13:16:54;;;;;;;1.20;0.32;;;;;;;;;;5279379;26;20011;-77
2024/04/18 13:19:20;;;;;;;0.63;0.10;;;;;;;;;;5255748;26;19995;-77
2024/04/18 13:21:46;;;;;;;0.50;0.20;;;;;;;;;;5281791;26;20003;-76
2024/04/18 13:24:13;;;;;;;0.63;0.30;;;;;;;;;;5253295;26;20007;-77
2024/04/18 13:26:41;;;;;;;1.33;0.47;;;;;;;;;;5253107;26;19991;-77
2024/04/18 13:29:07;;;;;;;0.45;0.22;;;;;;;;;;5254450;26;20040;-78
2024/04/18 13:31:35;;;;;;;0.47;0.20;;;;;;;;;;5280792;26;20014;-78
2024/04/18 13:34:01;;;;;;;2.85;0.22;;;;;;;;;;5279324;26;19998;-76
2024/04/18 13:36:27;;;;;;;0.40;0.20;;;;;;;;;;5253935;26;20003;-77
2024/04/18 13:38:57;;;;;;;0.50;0.20;;;;;;;;;;5253126;26;20051;-76
2024/04/18 13:41:23;;;;;;;1.55;0.60;;;;;;;;;;5283803;26;20044;-76
2024/04/18 13:43:52;;;;;;;1.27;0.30;;;;;;;;;;5280346;26;20026;-76
2024/04/18 13:46:18;;;;;;;0.70;0.25;;;;;;;;;;5254680;26;20006;-76
2024/04/18 13:48:44;;;;;;;1.75;0.38;;;;;;;;;;5250313;26;19999;-76
2024/04/18 13:51:10;;;;;;;2.28;0.30;;;;;;;;;;5281805;26;20018;-77
2024/04/18 13:53:36;;;;;;;0.90;0.40;;;;;;;;;;5282862;26;19990;-76
2024/04/18 13:56:02;;;;;;;2.03;0.40;;;;;;;;;;5258062;26;20018;-77
2024/04/18 13:58:30;;;;;;;1.60;0.40;;;;;;;;;;5255891;26;19995;-77
2024/04/18 14:01:00;;;;;;;0.85;0.30;;;;;;;;;;5281456;26;20018;-77
2024/04/18 14:03:26;;;;;;;1.95;0.30;;;;;;;;;;5251046;26;20019;-77
2024/04/18 14:05:57;;;;;;;0.80;0.40;;;;;;;;;;5253207;26;20007;-77
2024/04/18 14:08:23;;;;;;;1.80;0.40;;;;;;;;;;5281615;26;20018;-76
2024/04/18 14:10:49;;;;;;;0.40;0.25;;;;;;;;;;5283237;26;19996;-77
2024/04/18 14:13:15;;;;;;;4.25;0.55;;;;;;;;;;5282487;26;20002;-77
2024/04/18 14:18:48;;;;;;;1.00;0.30;;;;;;;;;;5285176;26;20007;-77
2024/04/18 14:21:12;;;;;;;2.15;0.82;;;;;;;;;;5250955;26;20002;-77
2024/04/18 14:23:38;;;;;;;0.40;0.20;;;;;;;;;;5280320;26;20002;-77
2024/04/18 14:26:04;;;;;;;2.25;0.50;;;;;;;;;;5280866;26;19999;-77
2024/04/18 14:28:30;;;;;;;0.73;0.20;;;;;;;;;;5253451;26;20006;-77
2024/04/18 14:30:56;;;;;;;1.08;0.50;;;;;;;;;;5282854;26;19992;-77
2024/04/18 14:33:22;;;;;;;1.80;0.30;;;;;;;;;;5255421;26;20011;-77
2024/04/18 14:35:48;;;;;;;3.90;0.82;;;;;;;;;;5282619;26;20006;-76
2024/04/18 14:38:14;;;;;;;1.08;0.52;;;;;;;;;;5281902;26;19999;-79